createdAt,value
2022-12-21T00:02:19.286Z,90.82
2022-12-21T00:04:48.405Z,90.68
2022-12-21T00:07:17.829Z,90.28
2022-12-21T00:09:44.999Z,90.65
2022-12-21T00:12:11.911Z,90.74
2022-12-21T00:14:40.526Z,90.70
2022-12-21T00:17:07.935Z,90.97
2022-12-21T00:19:35.479Z,90.77
2022-12-21T00:22:03.968Z,90.82
2022-12-21T00:24:31.326Z,90.77
2022-12-21T00:26:58.760Z,90.22
2022-12-21T00:29:26.290Z,89.90
2022-12-21T00:31:54.925Z,89.87
2022-12-21T00:34:22.727Z,90.19
2022-12-21T00:36:51.208Z,90.17
2022-12-21T00:39:19.216Z,90.86
2022-12-21T00:41:46.836Z,90.90
2022-12-21T00:44:14.635Z,91.35
2022-12-21T00:46:42.394Z,91.49
2022-12-21T00:49:10.787Z,91.42
2022-12-21T00:51:38.158Z,91.53
2022-12-21T00:54:06.494Z,91.67
2022-12-21T00:56:34.001Z,91.58
2022-12-21T00:59:01.587Z,91.74
2022-12-21T01:01:35.023Z,91.96
2022-12-21T01:04:03.011Z,92.40
2022-12-21T01:06:35.449Z,92.53
2022-12-21T01:09:07.022Z,92.47
2022-12-21T01:11:34.654Z,92.53
2022-12-21T01:14:02.037Z,92.79
2022-12-21T01:16:32.499Z,92.66
2022-12-21T01:19:07.375Z,92.66
2022-12-21T01:21:35.955Z,92.91
2022-12-21T01:24:03.155Z,92.85
2022-12-21T01:26:31.075Z,92.89
2022-12-21T01:28:58.699Z,92.30
2022-12-21T01:31:26.149Z,92.14
2022-12-21T01:33:54.501Z,92.75
2022-12-21T01:36:24.709Z,92.80
2022-12-21T01:38:58.064Z,92.52
2022-12-21T01:41:30.515Z,92.69
2022-12-21T01:43:59.646Z,92.30
2022-12-21T01:46:44.512Z,92.69
2022-12-21T01:49:32.470Z,92.60
2022-12-21T01:52:13.305Z,93.06
2022-12-21T01:54:58.202Z,93.01
2022-12-21T01:57:28.253Z,92.62
2022-12-21T01:59:58.010Z,92.96
2022-12-21T02:02:29.447Z,92.88
2022-12-21T02:05:07.732Z,93.16
2022-12-21T02:07:36.864Z,93.56
2022-12-21T02:10:04.606Z,94.06
2022-12-21T02:12:32.594Z,93.93
2022-12-21T02:14:59.810Z,93.93
2022-12-21T02:17:57.325Z,94.04
2022-12-21T02:20:32.582Z,94.49
2022-12-21T02:23:32.685Z,95.28
2022-12-21T02:26:25.690Z,95.45
2022-12-21T02:28:58.526Z,95.16
2022-12-21T02:31:45.362Z,95.02
2022-12-21T02:34:34.501Z,95.19
2022-12-21T02:37:31.464Z,95.31
2022-12-21T02:40:01.984Z,95.50
2022-12-21T02:43:02.535Z,95.67
2022-12-21T02:45:45.588Z,95.37
2022-12-21T02:48:22.951Z,95.14
2022-12-21T02:50:56.792Z,95.07
2022-12-21T02:53:43.339Z,94.87
2022-12-21T02:56:21.263Z,95.22
2022-12-21T02:58:48.978Z,95.15
2022-12-21T03:01:38.473Z,95.19
2022-12-21T03:04:28.067Z,94.92
2022-12-21T03:07:21.969Z,94.64
2022-12-21T03:09:52.282Z,94.49
2022-12-21T03:12:47.797Z,94.39
2022-12-21T03:15:36.061Z,94.74
2022-12-21T03:18:47.596Z,94.78
2022-12-21T03:21:32.356Z,94.95
2022-12-21T03:24:17.828Z,95.06
2022-12-21T03:27:08.869Z,94.99
2022-12-21T03:29:52.624Z,95.10
2022-12-21T03:32:32.010Z,95.39
2022-12-21T03:35:00.369Z,94.96
2022-12-21T03:37:36.696Z,94.66
2022-12-21T03:40:14.003Z,94.65
2022-12-21T03:42:51.325Z,94.47
2022-12-21T03:45:27.782Z,93.56
2022-12-21T03:48:05.986Z,92.82
2022-12-21T03:50:39.224Z,92.76
2022-12-21T03:53:49.414Z,92.76
2022-12-21T03:56:28.634Z,93.07
2022-12-21T03:58:56.788Z,92.91
2022-12-21T04:01:36.047Z,92.97
2022-12-21T04:04:13.933Z,92.93
2022-12-21T04:06:44.154Z,92.70
2022-12-21T04:09:13.086Z,92.57
2022-12-21T04:11:58.847Z,92.45
2022-12-21T04:14:27.332Z,92.68
2022-12-21T04:16:55.898Z,92.99
2022-12-21T04:19:41.688Z,92.91
2022-12-21T04:22:10.000Z,92.28
2022-12-21T04:24:55.465Z,92.51
2022-12-21T04:27:41.783Z,92.43
2022-12-21T04:30:09.813Z,92.63
2022-12-21T04:32:36.824Z,92.64
2022-12-21T04:35:04.494Z,92.82
2022-12-21T04:37:36.575Z,92.75
2022-12-21T04:40:10.340Z,92.48
2022-12-21T04:42:40.312Z,92.70
2022-12-21T04:45:07.788Z,92.75
2022-12-21T04:47:37.071Z,92.98
2022-12-21T04:50:06.047Z,93.00
2022-12-21T04:52:39.982Z,93.01
2022-12-21T04:55:07.783Z,92.84
2022-12-21T04:57:36.083Z,92.72
2022-12-21T05:00:04.445Z,93.05
2022-12-21T05:02:31.719Z,93.06
2022-12-21T05:04:59.472Z,92.78
2022-12-21T05:07:26.885Z,92.90
2022-12-21T05:09:55.453Z,92.84
2022-12-21T05:12:22.866Z,93.00
2022-12-21T05:14:50.272Z,93.12
2022-12-21T05:17:17.776Z,93.22
2022-12-21T05:19:47.998Z,93.37
2022-12-21T05:22:19.362Z,93.12
2022-12-21T05:24:46.764Z,92.81
2022-12-21T05:27:14.285Z,92.81
2022-12-21T05:29:41.761Z,92.92
2022-12-21T05:32:09.194Z,92.60
2022-12-21T05:34:36.863Z,92.52
2022-12-21T05:37:06.178Z,92.23
2022-12-21T05:39:33.648Z,92.22
2022-12-21T05:42:03.968Z,91.71
2022-12-21T05:44:37.245Z,91.65
2022-12-21T05:47:04.775Z,91.80
2022-12-21T05:49:32.162Z,92.03
2022-12-21T05:51:59.526Z,92.11
2022-12-21T05:54:27.626Z,92.48
2022-12-21T05:56:54.989Z,92.70
2022-12-21T05:59:24.571Z,92.43
2022-12-21T06:01:51.958Z,92.62
2022-12-21T06:04:19.559Z,92.01
2022-12-21T06:06:48.138Z,91.86
2022-12-21T06:09:16.419Z,92.16
2022-12-21T06:11:43.832Z,92.17
2022-12-21T06:14:11.352Z,92.32
2022-12-21T06:16:38.827Z,92.48
2022-12-21T06:19:06.258Z,92.78
2022-12-21T06:21:33.635Z,92.98
2022-12-21T06:24:01.243Z,92.89
2022-12-21T06:26:28.530Z,92.69
2022-12-21T06:28:56.228Z,92.84
2022-12-21T06:31:24.971Z,92.68
2022-12-21T06:33:52.545Z,92.63
2022-12-21T06:36:21.043Z,92.85
2022-12-21T06:38:48.637Z,93.14
2022-12-21T06:41:17.974Z,93.10
2022-12-21T06:43:47.156Z,92.94
2022-12-21T06:46:17.480Z,93.21
2022-12-21T06:48:46.685Z,93.36
2022-12-21T06:51:16.538Z,93.05
2022-12-21T06:53:46.094Z,93.13
2022-12-21T06:56:32.978Z,93.04
2022-12-21T06:59:00.325Z,93.02
2022-12-21T07:01:34.520Z,92.66
2022-12-21T07:04:03.236Z,92.59
2022-12-21T07:06:32.417Z,92.24
2022-12-21T07:09:02.042Z,92.63
2022-12-21T07:11:30.983Z,92.75
2022-12-21T07:13:58.601Z,92.91
2022-12-21T07:16:28.129Z,92.81
2022-12-21T07:18:55.414Z,92.87
2022-12-21T07:21:23.202Z,93.36
2022-12-21T07:23:51.144Z,93.87
2022-12-21T07:26:25.207Z,93.82
2022-12-21T07:28:56.216Z,93.73
2022-12-21T07:31:27.380Z,93.82
2022-12-21T07:33:55.339Z,94.01
2022-12-21T07:36:23.018Z,93.98
2022-12-21T07:38:51.509Z,93.77
2022-12-21T07:41:19.314Z,93.25
2022-12-21T07:43:47.799Z,93.33
2022-12-21T07:46:17.977Z,92.96
2022-12-21T07:48:45.338Z,92.71
2022-12-21T07:51:12.812Z,92.27
2022-12-21T07:53:40.560Z,92.26
2022-12-21T07:56:20.171Z,92.20
2022-12-21T07:58:47.814Z,91.87
2022-12-21T08:01:19.705Z,91.65
2022-12-21T08:03:47.704Z,91.36
2022-12-21T08:06:16.359Z,91.64
2022-12-21T08:08:44.132Z,91.95
2022-12-21T08:11:14.785Z,91.77
2022-12-21T08:13:43.818Z,91.35
2022-12-21T08:16:14.270Z,91.21
2022-12-21T08:18:41.696Z,90.68
2022-12-21T08:21:10.330Z,89.61
2022-12-21T08:23:38.008Z,89.78
2022-12-21T08:26:08.482Z,89.70
2022-12-21T08:28:36.429Z,89.58
2022-12-21T08:31:22.061Z,89.34
2022-12-21T08:33:49.749Z,89.11
2022-12-21T08:36:20.178Z,88.58
2022-12-21T08:41:36.509Z,88.34
2022-12-21T08:44:03.992Z,88.34
2022-12-21T08:46:31.611Z,88.07
2022-12-21T08:49:00.225Z,88.16
2022-12-21T08:51:27.697Z,88.07
2022-12-21T08:53:55.545Z,88.40
2022-12-21T08:56:23.913Z,88.17
2022-12-21T08:58:52.142Z,88.52
2022-12-21T09:01:24.242Z,88.90
2022-12-21T09:03:51.982Z,89.33
2022-12-21T09:06:20.109Z,89.98
2022-12-21T09:08:47.449Z,90.51
2022-12-21T09:11:16.514Z,91.46
2022-12-21T09:13:44.225Z,91.98
2022-12-21T09:16:23.848Z,92.11
2022-12-21T09:18:52.044Z,92.38
2022-12-21T09:21:21.929Z,92.32
2022-12-21T09:23:49.562Z,92.60
2022-12-21T09:26:17.624Z,93.00
2022-12-21T09:28:45.003Z,93.76
2022-12-21T09:31:17.283Z,93.75
2022-12-21T09:33:47.866Z,93.84
2022-12-21T09:36:15.690Z,94.33
2022-12-21T09:38:43.179Z,94.80
2022-12-21T09:41:34.375Z,95.72
2022-12-21T09:44:32.409Z,96.44
2022-12-21T09:47:04.618Z,97.37
2022-12-21T09:49:55.585Z,97.98
2022-12-21T09:52:39.736Z,98.30
2022-12-21T09:55:18.360Z,98.37
2022-12-21T09:57:49.420Z,98.57
2022-12-21T10:00:25.510Z,98.74
2022-12-21T10:03:49.799Z,98.64
2022-12-21T10:06:53.877Z,99.20
2022-12-21T10:09:57.358Z,99.39
2022-12-21T10:13:02.944Z,100.00
2022-12-21T10:15:52.251Z,100.00
2022-12-21T10:18:33.029Z,100.00
2022-12-21T10:21:17.134Z,100.00
2022-12-21T10:23:50.858Z,100.00
2022-12-21T10:26:24.051Z,100.00
2022-12-21T10:29:05.677Z,100.00
2022-12-21T10:31:46.664Z,100.00
2022-12-21T10:34:19.025Z,100.00
2022-12-21T10:36:48.963Z,100.00
2022-12-21T10:39:19.382Z,100.00
2022-12-21T10:42:14.456Z,100.00
2022-12-21T10:44:42.523Z,100.00
2022-12-21T10:47:18.347Z,100.00
2022-12-21T10:50:10.250Z,100.00
2022-12-21T10:52:49.899Z,100.00
2022-12-21T10:55:20.207Z,100.00
2022-12-21T10:57:49.443Z,100.00
2022-12-21T11:00:36.985Z,100.00
2022-12-21T11:03:26.012Z,100.00
2022-12-21T11:05:54.088Z,100.00
2022-12-21T11:08:33.617Z,100.00
2022-12-21T11:11:04.225Z,100.00
2022-12-21T11:13:33.521Z,100.00
2022-12-21T11:16:11.772Z,100.00
2022-12-21T11:18:50.596Z,100.00
2022-12-21T11:21:54.452Z,100.00
2022-12-21T11:24:22.503Z,100.00
2022-12-21T11:27:02.068Z,100.00
2022-12-21T11:29:32.961Z,100.00
2022-12-21T11:32:09.800Z,100.00
2022-12-21T11:34:36.966Z,100.00
2022-12-21T11:37:27.515Z,100.00
2022-12-21T11:40:18.641Z,100.00
2022-12-21T11:43:10.320Z,100.00
2022-12-21T11:46:07.887Z,100.00
2022-12-21T11:49:02.620Z,100.00
2022-12-21T11:51:45.041Z,100.00
2022-12-21T11:54:23.608Z,100.00
2022-12-21T11:57:28.274Z,100.00
2022-12-21T12:00:18.340Z,100.00
2022-12-21T12:03:31.493Z,100.00
2022-12-21T12:06:05.365Z,100.00
2022-12-21T12:08:54.133Z,100.00
2022-12-21T12:11:36.514Z,100.00
2022-12-21T12:14:13.609Z,100.00
2022-12-21T12:17:00.743Z,100.00
2022-12-21T12:19:58.482Z,100.00
2022-12-21T12:23:01.921Z,100.00
2022-12-21T12:26:18.773Z,100.00
2022-12-21T12:29:18.001Z,100.00
2022-12-21T12:32:18.442Z,100.00
2022-12-21T12:35:07.399Z,100.00
2022-12-21T12:38:17.879Z,100.00
2022-12-21T12:41:11.884Z,100.00
2022-12-21T12:43:57.648Z,100.00
2022-12-21T12:46:52.525Z,100.00
2022-12-21T12:49:42.675Z,100.00
2022-12-21T12:52:25.093Z,100.00
2022-12-21T12:55:24.165Z,100.00
2022-12-21T12:58:11.262Z,100.00
2022-12-21T13:01:08.501Z,100.00
2022-12-21T13:03:42.247Z,100.00
2022-12-21T13:06:23.314Z,100.00
2022-12-21T13:09:03.824Z,100.00
2022-12-21T13:11:40.369Z,100.00
2022-12-21T13:14:10.974Z,100.00
2022-12-21T13:17:01.265Z,100.00
2022-12-21T13:19:48.493Z,100.00
2022-12-21T13:22:20.362Z,100.00
2022-12-21T13:24:59.153Z,100.00
2022-12-21T13:27:30.917Z,100.00
2022-12-21T13:30:14.756Z,100.00
2022-12-21T13:33:16.059Z,100.00
2022-12-21T13:36:03.624Z,100.00
2022-12-21T13:39:07.209Z,100.00
2022-12-21T13:42:10.596Z,100.00
2022-12-21T13:44:49.501Z,100.00
2022-12-21T13:47:18.503Z,100.00
2022-12-21T13:50:07.185Z,100.00
2022-12-21T13:52:46.939Z,100.00
2022-12-21T13:55:32.532Z,100.00
2022-12-21T13:58:35.968Z,100.00
2022-12-21T14:01:45.195Z,100.00
2022-12-21T14:04:37.533Z,100.00
2022-12-21T14:07:19.928Z,100.00
2022-12-21T14:10:33.595Z,100.00
2022-12-21T14:13:16.136Z,100.00
2022-12-21T14:16:01.637Z,100.00
2022-12-21T14:18:40.209Z,100.00
2022-12-21T14:21:28.198Z,100.00
2022-12-21T14:24:15.100Z,100.00
2022-12-21T14:26:55.030Z,100.00
2022-12-21T14:29:40.288Z,100.00
2022-12-21T14:32:17.475Z,100.00
2022-12-21T14:35:04.663Z,100.00
2022-12-21T14:37:38.043Z,100.00
2022-12-21T14:40:14.571Z,100.00
2022-12-21T14:42:41.990Z,100.00
2022-12-21T14:45:15.294Z,100.00
2022-12-21T14:48:22.061Z,100.00
2022-12-21T14:51:04.199Z,100.00
2022-12-21T14:53:38.065Z,100.00
2022-12-21T14:56:17.687Z,100.00
2022-12-21T14:58:58.058Z,100.00
2022-12-21T15:01:45.165Z,100.00
2022-12-21T15:04:15.311Z,100.00
2022-12-21T15:06:50.549Z,100.00
2022-12-21T15:09:21.567Z,100.00
2022-12-21T15:12:10.675Z,100.00
2022-12-21T15:14:53.953Z,100.00
2022-12-21T15:17:32.438Z,100.00
2022-12-21T15:20:02.224Z,100.00
2022-12-21T15:22:44.263Z,100.00
2022-12-21T15:25:30.063Z,100.00
2022-12-21T15:28:13.264Z,100.00
2022-12-21T15:30:43.784Z,100.00
2022-12-21T15:33:19.848Z,100.00
2022-12-21T15:35:54.655Z,100.00
2022-12-21T15:38:26.409Z,100.00
2022-12-21T15:40:59.247Z,100.00
2022-12-21T15:43:39.436Z,100.00
2022-12-21T15:46:21.432Z,100.00
2022-12-21T15:49:09.649Z,100.00
2022-12-21T15:51:42.127Z,100.00
2022-12-21T15:54:22.015Z,100.00
2022-12-21T15:56:55.453Z,100.00
2022-12-21T15:59:36.798Z,100.00
2022-12-21T16:02:17.032Z,100.00
2022-12-21T16:04:49.175Z,100.00
2022-12-21T16:07:21.059Z,100.00
2022-12-21T16:09:58.232Z,100.00
2022-12-21T16:12:40.042Z,100.00
2022-12-21T16:15:35.096Z,100.00
2022-12-21T16:18:08.700Z,100.00
2022-12-21T16:20:42.153Z,100.00
2022-12-21T16:23:18.882Z,100.00
2022-12-21T16:25:49.088Z,100.00
2022-12-21T16:28:22.208Z,100.00
2022-12-21T16:31:01.999Z,100.00
2022-12-21T16:33:36.881Z,100.00
2022-12-21T16:36:05.155Z,100.00
2022-12-21T16:38:39.474Z,100.00
2022-12-21T16:41:08.848Z,100.00
2022-12-21T16:43:37.651Z,100.00
2022-12-21T16:46:07.700Z,100.00
2022-12-21T16:48:54.581Z,100.00
2022-12-21T16:51:41.836Z,100.00
2022-12-21T16:54:19.118Z,100.00
2022-12-21T16:56:57.596Z,100.00
2022-12-21T16:59:30.139Z,100.00
2022-12-21T17:02:29.939Z,100.00
2022-12-21T17:04:59.775Z,100.00
2022-12-21T17:07:43.847Z,100.00
2022-12-21T17:10:15.742Z,100.00
2022-12-21T17:12:48.358Z,100.00
2022-12-21T17:15:26.556Z,100.00
2022-12-21T17:17:57.064Z,100.00
2022-12-21T17:20:31.677Z,100.00
2022-12-21T17:23:27.369Z,100.00
2022-12-21T17:25:57.322Z,100.00
2022-12-21T17:28:33.178Z,100.00
2022-12-21T17:31:32.682Z,100.00
2022-12-21T17:34:03.473Z,100.00
2022-12-21T17:36:37.528Z,100.00
2022-12-21T17:39:15.841Z,100.00
2022-12-21T17:41:50.349Z,100.00
2022-12-21T17:44:41.195Z,100.00
2022-12-21T17:47:06.282Z,100.00
2022-12-21T17:49:35.464Z,100.00
2022-12-21T17:52:03.682Z,100.00
2022-12-21T17:54:31.253Z,100.00
2022-12-21T17:56:58.545Z,100.00
2022-12-21T17:59:26.017Z,100.00
2022-12-21T18:01:53.623Z,100.00
2022-12-21T18:04:30.402Z,100.00
2022-12-21T18:06:58.107Z,100.00
2022-12-21T18:09:26.593Z,100.00
2022-12-21T18:11:54.965Z,100.00
2022-12-21T18:14:22.634Z,100.00
2022-12-21T18:16:50.146Z,100.00
2022-12-21T18:19:17.406Z,100.00
2022-12-21T18:21:46.276Z,100.00
2022-12-21T18:24:14.326Z,100.00
2022-12-21T18:26:42.942Z,100.00
2022-12-21T18:29:16.825Z,100.00
2022-12-21T18:31:46.151Z,100.00
2022-12-21T18:34:17.329Z,100.00
2022-12-21T18:36:45.788Z,100.00
2022-12-21T18:39:17.256Z,100.00
2022-12-21T18:41:44.579Z,100.00
2022-12-21T18:44:12.077Z,100.00
2022-12-21T18:46:41.804Z,100.00
2022-12-21T18:49:14.986Z,100.00
2022-12-21T18:51:44.968Z,100.00
2022-12-21T18:54:23.794Z,100.00
2022-12-21T18:56:53.567Z,100.00
2022-12-21T18:59:27.344Z,100.00
2022-12-21T19:02:00.127Z,100.00
2022-12-21T19:04:34.248Z,100.00
2022-12-21T19:07:02.151Z,100.00
2022-12-21T19:09:29.667Z,100.00
2022-12-21T19:11:57.115Z,100.00
2022-12-21T19:14:25.050Z,100.00
2022-12-21T19:16:55.818Z,100.00
2022-12-21T19:19:32.559Z,100.00
2022-12-21T19:22:00.652Z,100.00
2022-12-21T19:24:33.640Z,100.00
2022-12-21T19:27:03.444Z,100.00
2022-12-21T19:29:31.323Z,100.00
2022-12-21T19:32:05.362Z,100.00
2022-12-21T19:34:32.887Z,100.00
2022-12-21T19:37:03.120Z,100.00
2022-12-21T19:39:52.061Z,100.00
2022-12-21T19:42:22.699Z,100.00
2022-12-21T19:44:52.243Z,100.00
2022-12-21T19:47:24.184Z,100.00
2022-12-21T19:49:53.442Z,100.00
2022-12-21T19:52:21.996Z,100.00
2022-12-21T19:54:50.042Z,100.00
2022-12-21T19:57:27.008Z,100.00
2022-12-21T19:59:54.850Z,100.00
2022-12-21T20:02:33.316Z,100.00
2022-12-21T20:05:00.773Z,100.00
2022-12-21T20:07:29.623Z,100.00
2022-12-21T20:09:58.025Z,100.00
2022-12-21T20:12:26.168Z,100.00
2022-12-21T20:14:59.531Z,100.00
2022-12-21T20:17:28.990Z,100.00
2022-12-21T20:19:57.301Z,100.00
2022-12-21T20:22:25.032Z,100.00
2022-12-21T20:24:52.813Z,100.00
2022-12-21T20:27:35.099Z,100.00
2022-12-21T20:30:05.326Z,100.00
2022-12-21T20:32:34.264Z,100.00
2022-12-21T20:35:16.107Z,100.00
2022-12-21T20:37:50.760Z,100.00
2022-12-21T20:40:22.706Z,100.00
2022-12-21T20:43:10.785Z,100.00
2022-12-21T20:45:40.749Z,100.00
2022-12-21T20:48:26.293Z,100.00
2022-12-21T20:50:54.022Z,100.00
2022-12-21T20:53:33.578Z,100.00
2022-12-21T20:56:19.374Z,100.00
2022-12-21T20:58:46.963Z,100.00
2022-12-21T21:01:18.385Z,100.00
2022-12-21T21:03:46.668Z,100.00
2022-12-21T21:06:16.606Z,100.00
2022-12-21T21:08:45.540Z,100.00
2022-12-21T21:11:33.150Z,100.00
2022-12-21T21:14:01.903Z,100.00
2022-12-21T21:16:36.276Z,100.00
2022-12-21T21:22:31.162Z,100.00
2022-12-21T21:24:58.731Z,100.00
2022-12-21T21:27:26.404Z,100.00
2022-12-21T21:29:56.160Z,100.00
2022-12-21T21:32:23.636Z,100.00
2022-12-21T21:34:51.124Z,100.00
2022-12-21T21:37:18.511Z,100.00
2022-12-21T21:40:04.511Z,100.00
2022-12-21T21:42:32.096Z,100.00
2022-12-21T21:44:59.304Z,100.00
2022-12-21T21:47:37.516Z,100.00
2022-12-21T21:50:20.755Z,100.00
2022-12-21T21:52:48.355Z,100.00
2022-12-21T21:55:17.643Z,100.00
2022-12-21T21:57:49.613Z,100.00
2022-12-21T22:00:19.516Z,100.00
2022-12-21T22:02:50.891Z,100.00
2022-12-21T22:05:26.795Z,100.00
2022-12-21T22:07:56.129Z,100.00
2022-12-21T22:10:34.564Z,100.00
2022-12-21T22:13:10.321Z,100.00
2022-12-21T22:15:41.340Z,100.00
2022-12-21T22:18:17.962Z,100.00
2022-12-21T22:21:04.496Z,100.00
2022-12-21T22:23:50.457Z,100.00
2022-12-21T22:26:53.930Z,100.00
2022-12-21T22:29:51.768Z,100.00
2022-12-21T22:32:27.683Z,100.00
2022-12-21T22:35:17.086Z,100.00
2022-12-21T22:38:10.885Z,100.00
2022-12-21T22:40:58.597Z,100.00
2022-12-21T22:43:26.462Z,100.00
2022-12-21T22:45:54.303Z,100.00
2022-12-21T22:48:23.902Z,100.00
2022-12-21T22:51:01.453Z,100.00
2022-12-21T22:53:39.039Z,100.00
2022-12-21T22:56:16.102Z,100.00
2022-12-21T22:58:47.442Z,100.00
2022-12-21T23:01:17.511Z,100.00
2022-12-21T23:03:44.906Z,100.00
2022-12-21T23:06:16.110Z,100.00
2022-12-21T23:08:45.033Z,100.00
2022-12-21T23:11:37.024Z,100.00
2022-12-21T23:14:36.709Z,100.00
2022-12-21T23:17:12.898Z,100.00
2022-12-21T23:19:40.495Z,100.00
2022-12-21T23:22:31.314Z,100.00
2022-12-21T23:25:17.833Z,100.00
2022-12-21T23:27:57.053Z,100.00
2022-12-21T23:30:45.377Z,100.00
2022-12-21T23:33:32.452Z,100.00
2022-12-21T23:36:32.720Z,100.00
2022-12-21T23:39:19.197Z,100.00
2022-12-21T23:42:10.925Z,100.00
2022-12-21T23:44:38.550Z,100.00
2022-12-21T23:47:29.595Z,100.00
2022-12-21T23:50:15.403Z,100.00
2022-12-21T23:53:01.453Z,100.00
2022-12-21T23:55:47.643Z,100.00
2022-12-21T23:58:34.361Z,100.00
